Time;durP1;ratioP1;P1;durP2;ratioP2;P2;SDS_P1;SDS_P2;PMS_P1;PMS_P2;Temp;Humidity;BMP_temperature;BMP_pressure;BME280_temperature;BME280_humidity;BME280_pressure;Samples;Min_cycle;Max_cycle;Signal;HPM_P1;HPM_P2
2023/07/14 00:01:34;;;;;;;10.90;7.93;;;;;;;18.14;73.76;101675.59;5023320;28;20080;-77
2023/07/14 00:04:00;;;;;;;8.93;6.72;;;;;;;18.18;73.60;101678.00;5025342;28;20384;-78
2023/07/14 00:06:25;;;;;;;8.52;7.53;;;;;;;18.13;74.57;101677.41;5029509;28;20030;-77
2023/07/14 00:08:51;;;;;;;10.00;7.78;;;;;;;18.19;74.13;101684.25;5022258;28;20020;-77
2023/07/14 00:11:23;;;;;;;11.07;7.78;;;;;;;18.20;73.44;101684.13;5041886;28;20026;-78
2023/07/14 00:13:51;;;;;;;10.15;7.22;;;;;;;18.29;74.67;101674.72;5027117;28;20113;-77
2023/07/14 00:16:27;;;;;;;7.82;6.93;;;;;;;18.33;73.00;101674.44;5018705;28;20544;-78
2023/07/14 00:18:52;;;;;;;8.80;7.20;;;;;;;18.26;74.09;101665.03;5028807;28;20049;-77
2023/07/14 00:21:22;;;;;;;9.85;7.60;;;;;;;18.18;74.81;101667.28;5018406;28;20026;-77
2023/07/14 00:23:48;;;;;;;8.30;7.47;;;;;;;18.09;74.14;101673.19;5031419;28;20404;-78
2023/07/14 00:26:17;;;;;;;13.32;7.80;;;;;;;18.05;74.29;101664.50;5049761;28;20037;-77
2023/07/14 00:28:43;;;;;;;10.07;7.55;;;;;;;18.07;74.41;101659.91;5027444;28;20022;-77
2023/07/14 00:31:14;;;;;;;8.80;7.85;;;;;;;18.00;74.74;101663.91;5023131;28;20080;-78
2023/07/14 00:33:39;;;;;;;8.95;7.57;;;;;;;17.96;74.95;101662.34;5032161;28;20484;-77
2023/07/14 00:36:06;;;;;;;10.40;6.45;;;;;;;18.03;73.53;101665.53;5028886;28;20064;-77
2023/07/14 00:38:34;;;;;;;9.80;7.45;;;;;;;18.01;73.95;101660.25;5036113;28;20475;-78
2023/07/14 00:41:01;;;;;;;10.57;7.60;;;;;;;17.88;75.74;101658.38;5015964;28;20037;-78
2023/07/14 00:43:29;;;;;;;9.82;7.22;;;;;;;17.78;74.99;101655.38;5025210;28;20356;-78
2023/07/14 00:45:56;;;;;;;10.90;8.30;;;;;;;17.74;76.04;101654.69;5021388;28;20385;-77
2023/07/14 00:48:24;;;;;;;12.90;7.82;;;;;;;17.67;76.21;101652.41;5029292;28;20492;-77
2023/07/14 00:50:55;;;;;;;10.25;6.80;;;;;;;17.78;74.99;101642.00;5024432;28;20029;-78
2023/07/14 00:53:30;;;;;;;7.72;6.78;;;;;;;17.91;74.88;101647.53;5029719;28;20040;-78
2023/07/14 00:56:33;;;;;;;11.25;7.13;;;;;;;17.99;74.42;101643.41;5021370;28;20033;-78
2023/07/14 00:58:59;;;;;;;9.38;7.38;;;;;;;17.92;75.79;101644.75;5023187;28;20050;-78
2023/07/14 01:01:25;;;;;;;11.32;6.35;;;;;;;17.94;75.11;101644.66;5013725;28;20517;-77
2023/07/14 01:03:59;;;;;;;7.13;6.22;;;;;;;17.97;75.26;101645.34;5024259;28;20021;-78
2023/07/14 01:06:29;;;;;;;8.82;6.47;;;;;;;17.91;75.09;101645.69;5022289;28;20017;-78
2023/07/14 01:08:59;;;;;;;11.65;5.90;;;;;;;17.86;75.12;101645.13;5019538;28;20500;-77
2023/07/14 01:11:34;;;;;;;10.23;6.32;;;;;;;17.84;75.05;101644.31;5028678;28;20079;-78
2023/07/14 01:14:03;;;;;;;9.45;6.80;;;;;;;17.67;76.34;101647.06;5029367;28;20064;-78
2023/07/14 01:16:30;;;;;;;8.02;5.95;;;;;;;17.67;76.75;101649.72;5034853;28;20545;-77
2023/07/14 01:18:56;;;;;;;7.38;5.85;;;;;;;17.78;75.54;101647.34;5022512;28;20393;-78
2023/07/14 01:21:21;;;;;;;10.50;6.18;;;;;;;17.83;75.43;101638.13;5026868;28;20031;-78
2023/07/14 01:23:59;;;;;;;7.88;6.15;;;;;;;17.84;75.47;101644.31;5032054;28;20044;-77
2023/07/14 01:27:04;;;;;;;10.57;5.82;;;;;;;17.92;74.25;101631.38;5052958;28;20025;-78
2023/07/14 01:29:31;;;;;;;7.88;5.85;;;;;;;17.92;74.89;101630.50;5029337;28;20020;-78
2023/07/14 01:31:57;;;;;;;7.72;6.35;;;;;;;17.77;76.12;101635.81;5037182;28;20051;-78
2023/07/14 01:34:23;;;;;;;9.35;6.32;;;;;;;17.77;76.32;101630.44;5057296;28;20488;-77
2023/07/14 01:36:48;;;;;;;9.35;6.78;;;;;;;17.77;76.15;101626.91;5024464;28;20029;-78
2023/07/14 01:39:14;;;;;;;11.40;6.95;;;;;;;17.77;76.17;101633.13;5020247;28;20502;-77
2023/07/14 01:41:41;;;;;;;9.70;7.13;;;;;;;17.77;75.65;101637.63;5014182;28;20046;-77
2023/07/14 01:44:14;;;;;;;9.48;6.60;;;;;;;17.83;75.03;101638.13;5030021;28;20135;-78
2023/07/14 01:46:40;;;;;;;9.23;6.55;;;;;;;17.85;75.28;101628.16;5015276;28;20029;-77
2023/07/14 01:49:33;;;;;;;7.47;6.00;;;;;;;17.96;74.41;101624.03;5031088;28;20733;-78
2023/07/14 01:52:02;;;;;;;8.88;6.68;;;;;;;17.78;75.15;101623.28;5016573;28;20563;-78
2023/07/14 01:54:46;;;;;;;9.27;6.38;;;;;;;17.85;75.50;101622.81;5023308;28;20029;-78
2023/07/14 01:57:17;;;;;;;10.50;6.85;;;;;;;17.79;76.36;101627.69;5025992;28;20033;-78
2023/07/14 01:59:55;;;;;;;8.82;6.30;;;;;;;17.75;75.47;101627.00;5019129;28;20068;-77
2023/07/14 02:02:26;;;;;;;9.45;6.70;;;;;;;17.77;75.38;101625.09;5019160;28;20028;-77
2023/07/14 02:04:51;;;;;;;8.10;6.90;;;;;;;17.73;75.00;101620.88;5023972;28;20037;-77
2023/07/14 02:07:18;;;;;;;8.70;7.40;;;;;;;17.71;75.65;101621.88;5028159;28;20026;-78
2023/07/14 02:09:44;;;;;;;10.13;7.28;;;;;;;17.73;76.03;101620.88;5017881;28;20026;-78
2023/07/14 02:12:16;;;;;;;11.18;7.65;;;;;;;17.64;76.83;101624.03;5031031;28;20025;-77
2023/07/14 02:14:49;;;;;;;10.48;6.93;;;;;;;17.70;76.14;101615.66;5031719;28;20512;-78
2023/07/14 02:17:30;;;;;;;8.38;6.40;;;;;;;17.75;75.18;101608.25;5018600;28;20033;-77
2023/07/14 02:19:57;;;;;;;8.93;7.20;;;;;;;17.76;75.15;101604.63;5032958;28;20025;-77
2023/07/14 02:22:23;;;;;;;12.32;7.60;;;;;;;17.74;75.22;101603.00;5028074;28;20032;-77
2023/07/14 02:24:51;;;;;;;10.25;7.63;;;;;;;17.68;76.04;101601.53;5018444;28;20076;-78
2023/07/14 02:27:17;;;;;;;8.90;7.70;;;;;;;17.59;76.02;101607.41;5022800;28;20377;-78
2023/07/14 02:29:42;;;;;;;7.82;6.70;;;;;;;17.57;75.61;101604.78;5019040;28;20044;-78
2023/07/14 02:32:08;;;;;;;10.90;8.23;;;;;;;17.51;76.28;101607.84;5020690;28;20033;-77
2023/07/14 02:34:38;;;;;;;10.07;8.30;;;;;;;17.49;76.38;101607.06;5033441;28;20033;-77
2023/07/14 02:37:05;;;;;;;9.35;7.80;;;;;;;17.45;76.67;101604.66;5015212;28;20034;-77
2023/07/14 02:39:38;;;;;;;7.88;7.00;;;;;;;17.45;76.58;101607.34;5018816;28;20057;-77
2023/07/14 02:42:04;;;;;;;11.93;7.57;;;;;;;17.43;76.34;101603.88;5034646;28;20459;-77
2023/07/14 02:44:36;;;;;;;9.35;7.63;;;;;;;17.41;75.87;101606.63;5028107;28;20072;-77
2023/07/14 02:47:22;;;;;;;9.07;8.13;;;;;;;17.33;75.95;101607.06;5020933;28;20118;-77
2023/07/14 02:49:48;;;;;;;10.93;8.00;;;;;;;17.17;76.56;101608.03;5022832;28;20108;-77
2023/07/14 02:52:14;;;;;;;12.10;8.23;;;;;;;17.09;76.66;101608.44;5030581;28;20028;-77
2023/07/14 02:54:40;;;;;;;10.07;7.65;;;;;;;16.92;77.13;101612.00;5023171;28;20383;-78
2023/07/14 02:57:06;;;;;;;11.98;8.43;;;;;;;16.88;76.73;101604.25;5023376;28;20034;-77
2023/07/14 02:59:31;;;;;;;9.05;7.30;;;;;;;16.93;76.87;101604.88;5028872;28;20029;-78
2023/07/14 03:01:57;;;;;;;8.57;6.95;;;;;;;17.03;77.85;101604.28;5014820;28;20389;-77
2023/07/14 03:04:23;;;;;;;8.25;7.07;;;;;;;17.11;75.79;101613.69;5020300;28;20080;-77
2023/07/14 03:06:49;;;;;;;11.15;7.80;;;;;;;17.06;76.20;101603.25;5031168;28;20518;-77
2023/07/14 03:09:16;;;;;;;11.13;7.55;;;;;;;17.09;76.11;101609.28;5018241;28;20026;-77
2023/07/14 03:11:41;;;;;;;10.50;8.25;;;;;;;16.91;77.00;101602.28;5027279;28;20479;-77
2023/07/14 03:14:08;;;;;;;10.38;7.55;;;;;;;16.92;76.94;101600.47;5029432;28;20029;-77
2023/07/14 03:16:33;;;;;;;11.63;7.97;;;;;;;16.96;76.71;101602.03;5019925;28;20025;-77
2023/07/14 03:18:59;;;;;;;11.65;7.90;;;;;;;17.05;76.44;101602.38;5021331;28;20032;-77
2023/07/14 03:21:24;;;;;;;16.05;8.35;;;;;;;17.11;76.39;101594.97;5036075;28;20029;-77
2023/07/14 03:23:50;;;;;;;9.98;7.55;;;;;;;17.14;76.58;101593.00;5032363;28;20024;-77
2023/07/14 03:26:15;;;;;;;8.73;7.25;;;;;;;17.14;76.66;101587.66;5025845;28;20044;-77
2023/07/14 03:28:41;;;;;;;10.10;8.32;;;;;;;17.14;76.40;101586.81;5026401;28;20048;-77
2023/07/14 03:31:06;;;;;;;12.13;8.35;;;;;;;17.26;76.10;101589.66;5025981;28;20028;-77
2023/07/14 03:33:36;;;;;;;11.10;7.20;;;;;;;17.38;75.79;101587.22;5021268;28;20508;-77
2023/07/14 03:36:03;;;;;;;8.63;6.97;;;;;;;17.44;74.34;101582.41;5023737;28;20092;-77
2023/07/14 03:38:28;;;;;;;12.45;7.60;;;;;;;17.43;74.93;101586.00;5017611;28;20034;-77
2023/07/14 03:40:54;;;;;;;8.18;7.30;;;;;;;17.40;75.57;101588.03;5016539;28;20160;-78
2023/07/14 03:43:19;;;;;;;9.48;7.93;;;;;;;17.32;75.59;101583.97;5016192;28;20113;-77
2023/07/14 03:45:44;;;;;;;9.05;7.43;;;;;;;17.36;75.14;101578.44;5014939;28;20030;-77
2023/07/14 03:48:10;;;;;;;13.50;8.30;;;;;;;17.42;75.34;101575.41;5021470;28;20026;-77
2023/07/14 03:50:35;;;;;;;10.55;7.38;;;;;;;17.43;75.03;101567.31;5020942;28;20036;-77
2023/07/14 03:53:00;;;;;;;9.70;7.45;;;;;;;17.43;74.84;101569.13;5022363;28;20037;-77
2023/07/14 03:55:28;;;;;;;9.63;8.05;;;;;;;17.40;74.84;101569.31;5022585;28;20463;-77
2023/07/14 03:57:55;;;;;;;10.02;7.55;;;;;;;17.34;75.69;101568.69;5027194;28;20476;-77
2023/07/14 04:00:21;;;;;;;12.52;7.65;;;;;;;17.34;75.42;101568.69;5033536;28;20124;-77
2023/07/14 04:02:46;;;;;;;11.13;7.78;;;;;;;17.31;75.39;101568.88;5023188;28;20563;-77
2023/07/14 04:05:13;;;;;;;9.85;8.02;;;;;;;17.31;74.78;101568.88;5034921;28;20026;-77
2023/07/14 04:07:41;;;;;;;8.85;6.97;;;;;;;17.37;74.93;101562.31;5028877;28;20026;-77
2023/07/14 04:10:08;;;;;;;9.15;6.88;;;;;;;17.51;74.25;101572.22;5025670;28;20530;-78
2023/07/14 04:12:34;;;;;;;8.73;6.53;;;;;;;17.56;73.50;101567.47;5030495;28;20550;-77
2023/07/14 04:15:00;;;;;;;9.10;6.38;;;;;;;17.53;75.24;101567.63;5029169;28;20021;-78
2023/07/14 04:17:26;;;;;;;9.00;6.63;;;;;;;17.38;74.96;101566.69;5027556;28;20532;-77
2023/07/14 04:19:52;;;;;;;10.63;6.53;;;;;;;17.37;75.88;101573.00;5028579;28;20517;-77
2023/07/14 04:22:19;;;;;;;7.28;5.78;;;;;;;17.45;74.38;101568.09;5016835;28;20022;-77
2023/07/14 04:24:45;;;;;;;9.35;6.35;;;;;;;17.52;74.79;101558.75;5033751;28;20034;-77
2023/07/14 04:27:12;;;;;;;10.43;6.55;;;;;;;17.61;73.59;101565.38;5036221;28;20108;-77
2023/07/14 04:29:38;;;;;;;7.50;5.55;;;;;;;17.63;73.75;101555.47;5044396;28;20492;-77
2023/07/14 04:32:04;;;;;;;10.43;5.88;;;;;;;17.63;73.46;101555.47;5021401;28;20037;-77
2023/07/14 04:34:30;;;;;;;9.38;5.38;;;;;;;17.72;74.13;101556.72;5037207;28;20596;-77
2023/07/14 04:36:56;;;;;;;7.90;4.80;;;;;;;17.73;72.70;101551.34;5030366;28;20021;-77
2023/07/14 04:39:23;;;;;;;8.95;5.60;;;;;;;17.69;72.94;101559.59;5031404;28;20357;-77
2023/07/14 04:41:50;;;;;;;12.18;5.50;;;;;;;17.66;72.66;101559.75;5033161;28;20049;-77
2023/07/14 04:44:16;;;;;;;7.65;4.80;;;;;;;17.69;71.90;101559.59;5030460;28;20028;-77
2023/07/14 04:46:43;;;;;;;9.52;5.53;;;;;;;17.72;73.32;101562.06;5033727;28;20026;-77
2023/07/14 04:49:10;;;;;;;7.68;5.10;;;;;;;17.71;72.35;101563.88;5027869;28;20112;-77
2023/07/14 04:51:37;;;;;;;7.07;5.03;;;;;;;17.70;73.57;101564.84;5028347;28;20025;-77
2023/07/14 04:54:03;;;;;;;6.47;5.03;;;;;;;17.74;71.94;101569.09;5039912;28;20388;-77
2023/07/14 04:56:29;;;;;;;6.22;5.25;;;;;;;17.75;72.54;101569.97;5034152;28;20025;-77
2023/07/14 04:58:54;;;;;;;9.30;5.05;;;;;;;17.66;72.26;101565.97;5024423;28;20590;-77
2023/07/14 05:01:20;;;;;;;8.00;5.07;;;;;;;17.57;72.95;101571.84;5027326;28;20061;-77
2023/07/14 05:03:45;;;;;;;5.82;4.43;;;;;;;17.48;72.79;101564.38;5025978;28;20048;-77
2023/07/14 05:06:12;;;;;;;9.32;5.10;;;;;;;17.38;72.88;101564.03;5021201;28;20028;-77
2023/07/14 05:08:37;;;;;;;6.28;4.43;;;;;;;17.38;74.07;101560.50;5025328;28;20485;-77
2023/07/14 05:11:03;;;;;;;8.13;4.93;;;;;;;17.43;73.88;101558.41;5035989;28;20026;-77
2023/07/14 05:13:29;;;;;;;6.50;4.93;;;;;;;17.50;72.38;101558.00;5028228;28;20511;-77
2023/07/14 05:15:56;;;;;;;6.40;4.53;;;;;;;17.64;72.59;101559.88;5029923;28;20541;-77
2023/07/14 05:18:22;;;;;;;6.47;4.20;;;;;;;17.76;72.55;101556.50;5029694;28;20645;-77
2023/07/14 05:20:47;;;;;;;6.78;4.53;;;;;;;17.89;73.06;101551.28;5034592;28;20033;-77
2023/07/14 05:23:13;;;;;;;7.85;4.30;;;;;;;18.01;71.54;101549.69;5025475;28;20056;-77
2023/07/14 05:25:38;;;;;;;8.68;4.55;;;;;;;18.08;71.15;101557.25;5031333;28;20028;-77
2023/07/14 05:28:04;;;;;;;7.45;4.43;;;;;;;18.14;71.24;101548.03;5032384;28;20120;-77
2023/07/14 05:30:30;;;;;;;10.25;4.40;;;;;;;18.19;70.23;101553.09;5023354;28;20026;-77
2023/07/14 05:32:55;;;;;;;8.18;4.35;;;;;;;18.19;70.34;101553.09;5025601;28;20477;-77
2023/07/14 05:35:21;;;;;;;11.60;5.10;;;;;;;18.28;70.02;101558.75;5026875;28;20025;-77
2023/07/14 05:37:46;;;;;;;7.13;4.68;;;;;;;18.28;69.12;101564.09;5020566;28;20423;-78
2023/07/14 05:40:14;;;;;;;10.13;4.80;;;;;;;18.32;69.03;101557.56;5025563;28;20482;-77
2023/07/14 05:42:40;;;;;;;7.28;4.47;;;;;;;18.25;67.91;101558.06;5029579;28;20040;-77
2023/07/14 05:45:08;;;;;;;7.10;4.30;;;;;;;18.32;68.05;101556.72;5035786;28;20030;-77
2023/07/14 05:47:35;;;;;;;7.38;3.88;;;;;;;18.47;68.00;101552.25;5016510;28;20117;-77
2023/07/14 05:50:01;;;;;;;8.27;4.35;;;;;;;18.65;67.79;101552.91;5022014;28;20034;-77
2023/07/14 05:52:27;;;;;;;8.55;3.90;;;;;;;18.81;67.02;101551.03;5023676;28;20095;-77
2023/07/14 05:54:52;;;;;;;6.35;3.95;;;;;;;18.81;66.16;101554.56;5028414;28;20025;-77
2023/07/14 05:57:17;;;;;;;5.88;3.67;;;;;;;18.77;64.46;101549.50;5023146;28;20033;-77
2023/07/14 05:59:43;;;;;;;5.82;3.80;;;;;;;18.78;65.88;101551.22;5030504;28;20024;-77
2023/07/14 06:02:14;;;;;;;6.43;4.15;;;;;;;18.78;65.58;101552.06;5017938;28;20164;-77
2023/07/14 06:04:43;;;;;;;5.63;4.03;;;;;;;18.74;66.12;101549.69;5028685;28;20033;-77
2023/07/14 06:07:09;;;;;;;4.50;3.60;;;;;;;18.82;65.40;101558.97;5030458;28;20424;-77
2023/07/14 06:09:36;;;;;;;8.70;4.22;;;;;;;18.89;65.43;101558.59;5045797;28;20029;-77
2023/07/14 06:12:04;;;;;;;6.85;3.75;;;;;;;18.96;64.25;101555.41;5031465;28;20484;-77
2023/07/14 06:14:34;;;;;;;6.20;3.88;;;;;;;18.94;64.20;101560.00;5027605;28;20025;-77
2023/07/14 06:17:00;;;;;;;7.07;3.35;;;;;;;18.79;63.81;101563.66;5016611;28;20040;-77
2023/07/14 06:19:27;;;;;;;8.48;3.75;;;;;;;18.75;63.60;101565.69;5020873;28;20527;-77
2023/07/14 06:21:53;;;;;;;8.35;3.90;;;;;;;18.68;64.72;101556.25;5033681;28;20112;-77
2023/07/14 06:24:19;;;;;;;5.60;3.30;;;;;;;18.81;63.57;101551.03;5031752;28;20594;-77
2023/07/14 06:26:44;;;;;;;10.38;3.70;;;;;;;18.95;63.75;101548.34;5022313;28;20053;-77
2023/07/14 06:29:10;;;;;;;8.57;3.47;;;;;;;18.93;63.99;101547.59;5018015;28;20028;-77
2023/07/14 06:31:35;;;;;;;6.57;3.47;;;;;;;18.92;63.15;101553.00;5019390;28;20055;-77
2023/07/14 06:34:00;;;;;;;10.10;3.55;;;;;;;18.99;63.22;101551.69;5027295;28;20032;-78
2023/07/14 06:36:26;;;;;;;5.32;3.22;;;;;;;19.13;62.05;101550.78;5018210;28;20036;-77
2023/07/14 06:38:52;;;;;;;6.03;3.90;;;;;;;19.23;61.90;101550.09;5019610;28;20029;-77
2023/07/14 06:41:17;;;;;;;7.10;3.65;;;;;;;19.34;62.67;101552.06;5033203;28;20189;-77
2023/07/14 06:43:42;;;;;;;6.90;3.88;;;;;;;19.41;62.60;101558.75;5024074;28;20026;-77
2023/07/14 06:46:08;;;;;;;4.68;3.50;;;;;;;19.39;61.67;101552.63;5018431;28;20039;-77
2023/07/14 06:48:33;;;;;;;7.53;3.70;;;;;;;19.48;62.01;101551.16;5020250;28;20047;-77
2023/07/14 06:50:58;;;;;;;6.40;3.83;;;;;;;19.47;61.47;101546.75;5027578;28;20124;-77
2023/07/14 06:53:25;;;;;;;7.40;3.55;;;;;;;19.41;61.69;101555.22;5026501;28;20123;-77
2023/07/14 06:55:50;;;;;;;6.63;3.80;;;;;;;19.63;61.36;101542.09;5020992;28;20491;-77
2023/07/14 06:58:15;;;;;;;5.63;3.22;;;;;;;19.76;59.87;101542.16;5017610;28;20036;-77
2023/07/14 07:00:41;;;;;;;8.85;3.13;;;;;;;19.91;59.40;101537.56;5035514;28;20035;-77
2023/07/14 07:03:06;;;;;;;7.13;3.15;;;;;;;19.99;58.83;101536.06;5032073;28;20053;-77
2023/07/14 07:05:37;;;;;;;6.72;3.10;;;;;;;20.26;59.09;101533.31;5024744;28;21069;-77
2023/07/14 07:08:03;;;;;;;6.07;3.40;;;;;;;20.55;58.16;101527.75;5025030;28;20390;-77
2023/07/14 07:10:28;;;;;;;14.15;2.90;;;;;;;20.38;55.38;101534.28;5024451;28;20037;-77
2023/07/14 07:12:54;;;;;;;6.22;3.03;;;;;;;20.17;56.34;101535.78;5036433;28;20029;-79
2023/07/14 07:15:19;;;;;;;3.83;2.75;;;;;;;20.36;57.07;101529.00;5020610;28;20022;-77
2023/07/14 07:17:46;;;;;;;4.45;2.67;;;;;;;20.50;56.62;101519.16;5015512;28;20087;-78
2023/07/14 07:20:12;;;;;;;5.32;2.88;;;;;;;20.42;55.33;101516.09;5022533;28;20029;-78
2023/07/14 07:22:41;;;;;;;5.30;3.60;;;;;;;20.43;56.64;101518.72;5030229;28;20384;-78
2023/07/14 07:25:07;;;;;;;4.85;2.90;;;;;;;20.46;56.80;101504.19;5033041;28;20456;-78
2023/07/14 07:27:32;;;;;;;3.45;2.40;;;;;;;20.70;56.40;101510.50;5027006;28;20092;-78
2023/07/14 07:29:58;;;;;;;2.92;2.38;;;;;;;20.79;55.92;101507.16;5024902;28;20104;-78
2023/07/14 07:32:23;;;;;;;3.47;2.33;;;;;;;20.92;55.49;101515.19;5031162;28;20109;-78
2023/07/14 07:34:49;;;;;;;6.22;2.55;;;;;;;21.20;54.95;101505.97;5032526;28;20502;-78
2023/07/14 07:37:14;;;;;;;4.75;2.60;;;;;;;21.45;52.51;101512.22;5024774;28;20026;-78
2023/07/14 07:39:40;;;;;;;4.50;2.75;;;;;;;21.31;53.88;101510.56;5032385;28;20035;-78
2023/07/14 07:42:06;;;;;;;5.78;2.33;;;;;;;21.22;53.53;101511.25;5030094;28;20056;-78
2023/07/14 07:44:32;;;;;;;4.18;2.05;;;;;;;21.12;52.13;101500.28;5024125;28;20053;-78
2023/07/14 07:46:57;;;;;;;5.90;2.20;;;;;;;21.06;53.24;101501.59;5023086;28;20121;-78
2023/07/14 07:49:23;;;;;;;5.18;2.15;;;;;;;21.30;54.49;101493.53;5028707;28;20025;-78
2023/07/14 07:51:48;;;;;;;2.92;2.45;;;;;;;21.83;52.14;101493.19;5027579;28;20544;-78
2023/07/14 07:54:14;;;;;;;6.18;2.10;;;;;;;21.96;51.24;101504.69;5020421;28;20022;-78
2023/07/14 07:56:42;;;;;;;5.18;2.50;;;;;;;22.34;50.64;101496.34;5041920;28;20033;-78
2023/07/14 07:59:15;;;;;;;6.50;2.58;;;;;;;22.66;48.86;101492.88;5030529;28;20158;-78
2023/07/14 08:01:41;;;;;;;4.28;2.35;;;;;;;22.95;48.86;101489.72;5021651;28;20037;-78
2023/07/14 08:04:06;;;;;;;4.80;2.10;;;;;;;22.72;49.07;101495.09;5025087;28;20495;-78
2023/07/14 08:06:32;;;;;;;3.88;2.20;;;;;;;22.57;50.18;101483.72;5024120;28;20148;-78
2023/07/14 08:08:58;;;;;;;3.92;2.00;;;;;;;22.42;49.30;101488.50;5031356;28;20119;-78
2023/07/14 08:11:23;;;;;;;3.63;2.22;;;;;;;22.55;49.29;101482.97;5037272;28;20561;-78
2023/07/14 08:13:48;;;;;;;4.72;2.00;;;;;;;22.58;48.13;101493.53;5023298;28;20044;-78
2023/07/14 08:16:14;;;;;;;7.50;2.50;;;;;;;22.53;48.62;101481.41;5039916;28;20488;-78
2023/07/14 08:18:39;;;;;;;4.07;1.95;;;;;;;22.47;49.27;101490.81;5025363;28;20179;-78
2023/07/14 08:21:05;;;;;;;3.92;2.10;;;;;;;22.05;48.74;101487.81;5028330;28;20352;-80
2023/07/14 08:23:30;;;;;;;4.13;2.10;;;;;;;21.80;49.10;101491.56;5024804;28;20354;-79
2023/07/14 08:25:59;;;;;;;2.45;1.90;;;;;;;21.70;50.09;101495.94;5027533;28;20509;-79
2023/07/14 08:28:24;;;;;;;4.20;2.10;;;;;;;21.79;50.10;101486.31;5042082;28;20087;-79
2023/07/14 08:30:51;;;;;;;3.42;1.73;;;;;;;22.04;49.70;101491.50;5037624;28;20037;-79
2023/07/14 08:33:18;;;;;;;2.58;1.92;;;;;;;22.09;49.87;101491.13;5034135;28;20032;-79
2023/07/14 08:35:43;;;;;;;3.35;2.00;;;;;;;22.12;49.24;101489.09;5022075;28;20112;-79
2023/07/14 08:38:09;;;;;;;3.72;2.15;;;;;;;22.07;49.05;101490.41;5027500;28;20021;-80
2023/07/14 08:40:50;;;;;;;3.50;2.03;;;;;;;21.88;49.78;101482.91;5044123;28;20124;-79
2023/07/14 08:43:24;;;;;;;2.90;1.65;;;;;;;21.95;50.46;101486.81;5021479;28;20076;-79
2023/07/14 08:45:59;;;;;;;4.30;2.10;;;;;;;22.00;49.15;101483.78;5017873;28;20083;-79
2023/07/14 08:48:37;;;;;;;3.58;2.05;;;;;;;22.40;49.31;101485.06;5019546;28;20440;-78
2023/07/14 08:51:40;;;;;;;4.63;2.15;;;;;;;23.26;47.38;101488.00;5021570;28;20104;-79
2023/07/14 08:54:21;;;;;;;5.18;2.17;;;;;;;24.29;45.36;101475.53;4996818;28;20431;-79
2023/07/14 08:56:48;;;;;;;5.40;1.95;;;;;;;25.48;41.84;101471.19;5024898;28;20543;-79
2023/07/14 08:59:20;;;;;;;4.07;2.20;;;;;;;25.95;40.66;101480.28;5027444;28;20037;-79
2023/07/14 09:01:53;;;;;;;6.07;2.42;;;;;;;26.41;40.11;101465.00;5020712;28;20021;-79
2023/07/14 09:04:36;;;;;;;3.13;2.20;;;;;;;26.57;41.11;101467.09;5021955;28;20366;-79
2023/07/14 09:07:02;;;;;;;3.05;1.92;;;;;;;26.69;39.57;101458.59;5025499;28;20098;-79
2023/07/14 09:09:34;;;;;;;5.22;2.22;;;;;;;27.08;37.60;101463.81;5015901;28;20073;-79
2023/07/14 09:12:06;;;;;;;4.25;2.08;;;;;;;27.41;38.37;101455.97;5016299;28;20033;-79
2023/07/14 09:14:43;;;;;;;3.85;2.10;;;;;;;27.23;38.69;101455.97;5026868;28;20500;-79
2023/07/14 09:17:29;;;;;;;3.63;2.05;;;;;;;27.17;37.84;101460.16;5024230;28;20038;-79
2023/07/14 09:20:13;;;;;;;4.90;2.05;;;;;;;26.16;38.92;101456.56;5027547;28;20032;-79
2023/07/14 09:22:41;;;;;;;4.88;2.55;;;;;;;25.97;41.49;101447.59;5020199;28;20042;-79
2023/07/14 09:25:31;;;;;;;6.90;2.63;;;;;;;26.31;41.53;101446.06;5032237;28;20021;-79
2023/07/14 09:27:57;;;;;;;4.05;2.13;;;;;;;26.64;39.98;101447.38;5026419;28;20032;-79
2023/07/14 09:30:26;;;;;;;5.90;2.90;;;;;;;27.04;40.64;101439.81;5034686;28;20029;-79
2023/07/14 09:32:57;;;;;;;4.75;2.65;;;;;;;27.24;40.11;101438.69;5025971;28;20025;-79
2023/07/14 09:35:25;;;;;;;4.13;2.58;;;;;;;27.75;39.03;101428.97;5013165;28;20033;-79
2023/07/14 09:38:15;;;;;;;4.97;2.47;;;;;;;27.30;39.10;101439.94;5020996;28;20401;-79
2023/07/14 09:40:43;;;;;;;4.50;2.08;;;;;;;26.92;38.65;101431.91;5025633;28;20046;-79
2023/07/14 09:43:10;;;;;;;5.05;2.40;;;;;;;26.88;38.93;101422.34;5023136;28;20049;-79
2023/07/14 09:45:39;;;;;;;7.97;2.53;;;;;;;26.63;39.83;101423.13;5013617;28;20052;-80
2023/07/14 09:48:26;;;;;;;3.72;2.28;;;;;;;26.90;38.76;101431.19;5025489;28;20025;-80
2023/07/14 09:50:59;;;;;;;3.72;2.22;;;;;;;26.59;40.10;101417.13;5030979;28;20029;-80
2023/07/14 09:53:26;;;;;;;5.32;2.25;;;;;;;27.07;39.04;101413.22;5027713;28;20045;-79
2023/07/14 09:55:56;;;;;;;4.32;2.30;;;;;;;27.02;38.92;101420.97;5021219;28;20062;-82
2023/07/14 09:58:28;;;;;;;9.57;2.95;;;;;;;27.15;39.38;101412.47;5015453;28;20049;-80
2023/07/14 10:01:04;;;;;;;3.75;2.47;;;;;;;27.22;38.72;101413.56;5030034;28;20028;-79
2023/07/14 10:03:39;;;;;;;4.28;2.63;;;;;;;26.90;39.27;101414.91;5028444;28;20063;-80
2023/07/14 10:06:16;;;;;;;2.88;2.20;;;;;;;27.09;39.49;101410.38;5030474;28;20033;-80
2023/07/14 10:08:54;;;;;;;3.60;2.83;;;;;;;26.67;39.02;101405.50;5027141;28;20396;-80
2023/07/14 10:11:37;;;;;;;3.85;2.38;;;;;;;26.46;40.00;101394.94;5018324;28;20028;-80
2023/07/14 10:14:19;;;;;;;6.75;2.60;;;;;;;26.51;40.94;101395.34;5018719;28;20037;-81
2023/07/14 10:16:46;;;;;;;3.75;2.03;;;;;;;26.10;40.18;101380.38;5024823;28;20025;-81
2023/07/14 10:19:14;;;;;;;5.43;2.53;;;;;;;25.88;42.15;101377.06;5025697;28;20048;-81
2023/07/14 10:21:51;;;;;;;3.58;2.40;;;;;;;26.05;41.58;101369.13;5018608;28;20037;-81
2023/07/14 10:24:18;;;;;;;7.50;2.83;;;;;;;25.94;40.58;101376.47;5027430;28;20456;-81
2023/07/14 10:26:58;;;;;;;5.65;2.08;;;;;;;26.14;41.79;101365.53;5023027;28;20534;-81
2023/07/14 10:29:27;;;;;;;4.82;2.25;;;;;;;26.68;40.35;101369.25;5024987;28;20035;-81
2023/07/14 10:32:21;;;;;;;4.90;2.40;;;;;;;27.00;40.51;101355.16;5019920;28;20095;-81
2023/07/14 10:34:59;;;;;;;7.53;2.63;;;;;;;27.63;39.86;101357.69;5025451;28;20400;-81
2023/07/14 10:37:28;;;;;;;3.85;2.40;;;;;;;28.34;37.76;101347.50;5014393;28;20049;-81
2023/07/14 10:40:00;;;;;;;4.30;2.00;;;;;;;28.53;38.36;101349.97;5026544;28;20033;-81
2023/07/14 10:42:31;;;;;;;4.97;2.58;;;;;;;28.43;36.46;101336.50;5016071;28;20125;-81
2023/07/14 10:44:58;;;;;;;5.70;2.40;;;;;;;28.32;37.28;101336.81;5030563;28;20041;-79
2023/07/14 10:47:47;;;;;;;2.97;2.30;;;;;;;28.55;37.87;101334.34;5030475;28;20092;-79
2023/07/14 10:50:32;;;;;;;3.42;2.28;;;;;;;29.02;37.55;101327.44;5025937;28;20025;-82
2023/07/14 10:53:12;;;;;;;3.30;1.83;;;;;;;28.75;36.00;101324.00;5022475;28;20032;-80
2023/07/14 10:55:39;;;;;;;2.28;1.60;;;;;;;28.40;36.09;101323.28;5018086;28;20025;-80
2023/07/14 10:58:13;;;;;;;3.08;1.83;;;;;;;28.19;36.27;101320.09;5030896;28;20025;-80
2023/07/14 11:00:46;;;;;;;4.68;2.20;;;;;;;28.37;36.46;101322.75;5038220;28;20132;-80
2023/07/14 11:03:28;;;;;;;3.72;2.20;;;;;;;28.61;37.74;101321.94;5032154;28;20033;-80
2023/07/14 11:05:53;;;;;;;;;;;;;;;28.57;36.44;101321.41;5025616;28;20400;-80
2023/07/14 11:08:18;;;;;;;4.88;2.33;;;;;;;27.74;36.88;101326.69;5024315;28;19920;-80
2023/07/14 11:11:05;;;;;;;5.40;2.20;;;;;;;27.68;37.21;101330.03;5028574;28;20392;-79
2023/07/14 11:13:58;;;;;;;3.22;2.03;;;;;;;27.43;37.89;101313.59;5020734;28;20306;-80
2023/07/14 11:16:52;;;;;;;2.83;2.08;;;;;;;27.61;36.79;101304.53;5026820;28;20480;-79
2023/07/14 11:19:30;;;;;;;5.10;2.08;;;;;;;27.92;38.04;101304.88;5020195;28;20500;-79
2023/07/14 11:22:01;;;;;;;4.10;2.05;;;;;;;27.89;36.75;101299.78;5023491;28;20038;-79
2023/07/14 11:24:51;;;;;;;4.75;2.30;;;;;;;28.10;37.19;101275.72;5023275;28;20048;-79
2023/07/14 11:27:33;;;;;;;5.22;2.20;;;;;;;28.09;36.98;101259.59;5044049;28;20048;-79
2023/07/14 11:30:00;;;;;;;1.75;1.48;;;;;;;27.81;36.69;101262.53;5031112;28;20075;-80
2023/07/14 11:32:46;;;;;;;4.40;2.20;;;;;;;27.66;37.55;101266.88;5034552;28;20032;-79
2023/07/14 11:35:36;;;;;;;3.20;1.80;;;;;;;27.66;37.58;101261.44;5029422;28;20032;-79